Time;durP1;ratioP1;P1;durP2;ratioP2;P2;SDS_P1;SDS_P2;PMS_P1;PMS_P2;Temp;Humidity;BMP_temperature;BMP_pressure;BME280_temperature;BME280_humidity;BME280_pressure;Samples;Min_cycle;Max_cycle;Signal;HPM_P1;HPM_P2
2023/01/12 00:02:37;;;;;;;5.97;2.20;;;11.30;74.30;;;;;;5039334;28;20041;-49
2023/01/12 00:05:04;;;;;;;4.88;2.58;;;11.30;74.40;;;;;;5036216;28;20502;-54
2023/01/12 00:07:33;;;;;;;8.00;1.83;;;11.30;74.50;;;;;;5043599;28;20132;-51
2023/01/12 00:10:02;;;;;;;5.78;1.27;;;11.30;74.50;;;;;;5024165;28;20051;-53
2023/01/12 00:12:31;;;;;;;6.60;1.88;;;11.30;74.60;;;;;;5037520;28;20061;-49
2023/01/12 00:14:58;;;;;;;9.45;2.25;;;11.30;74.70;;;;;;5036619;28;20099;-52
2023/01/12 00:17:27;;;;;;;7.40;2.53;;;11.30;74.80;;;;;;5041468;28;20257;-52
2023/01/12 00:19:56;;;;;;;5.40;2.20;;;11.30;74.80;;;;;;5039253;28;20047;-53
2023/01/12 00:22:23;;;;;;;9.82;2.47;;;11.30;74.90;;;;;;5035743;28;20043;-49
2023/01/12 00:24:53;;;;;;;5.88;2.10;;;11.30;74.90;;;;;;5042722;28;20049;-51
2023/01/12 00:27:22;;;;;;;6.10;2.28;;;11.30;75.00;;;;;;5040190;28;20064;-51
2023/01/12 00:29:49;;;;;;;6.60;1.90;;;11.30;75.20;;;;;;5036816;28;20055;-51
2023/01/12 00:32:20;;;;;;;7.90;2.92;;;11.30;75.30;;;;;;5023669;28;20051;-53
2023/01/12 00:34:52;;;;;;;6.22;2.70;;;11.30;75.30;;;;;;5042898;28;20497;-47
2023/01/12 00:37:19;;;;;;;7.03;2.22;;;11.30;75.50;;;;;;5039627;28;20056;-48
2023/01/12 00:39:48;;;;;;;11.43;2.72;;;11.30;75.50;;;;;;5039087;28;20718;-51
2023/01/12 00:45:21;;;;;;;9.82;3.28;;;11.40;75.50;;;;;;5022500;28;20052;-49
2023/01/12 00:47:47;;;;;;;7.05;2.40;;;11.40;75.40;;;;;;5023610;28;20425;-49
2023/01/12 00:50:14;;;;;;;8.55;2.75;;;11.40;75.50;;;;;;5041197;28;20284;-52
2023/01/12 00:52:47;;;;;;;9.60;2.63;;;11.40;75.60;;;;;;5021510;28;20135;-48
2023/01/12 00:55:14;;;;;;;9.65;2.70;;;11.40;75.60;;;;;;5036297;28;20119;-51
2023/01/12 00:57:41;;;;;;;9.45;2.97;;;11.40;75.80;;;;;;5020240;28;20041;-49
2023/01/12 01:00:13;;;;;;;;;;;11.30;75.70;;;;;;5043176;28;20492;-48
2023/01/12 01:02:40;;;;;;;5.80;2.40;;;11.40;76.50;;;;;;5039634;28;19927;-53
2023/01/12 01:05:09;;;;;;;10.20;2.90;;;11.40;75.40;;;;;;5039629;28;20573;-52
2023/01/12 01:07:41;;;;;;;6.80;2.40;;;11.40;75.50;;;;;;5043273;28;20428;-53
2023/01/12 01:10:14;;;;;;;8.38;3.08;;;11.50;75.60;;;;;;5040457;28;20047;-49
2023/01/12 01:12:41;;;;;;;7.05;2.60;;;11.50;75.70;;;;;;5040847;28;20049;-52
2023/01/12 01:15:12;;;;;;;9.18;2.67;;;11.50;75.60;;;;;;5041548;28;20041;-48
2023/01/12 01:17:39;;;;;;;11.13;2.42;;;11.50;75.60;;;;;;5038562;28;20041;-50
2023/01/12 01:20:14;;;;;;;8.75;3.05;;;11.50;75.60;;;;;;5022799;28;20037;-50
2023/01/12 01:22:42;;;;;;;9.30;2.42;;;11.50;75.70;;;;;;5043286;28;20143;-48
2023/01/12 01:25:11;;;;;;;11.35;2.40;;;11.50;75.50;;;;;;5039598;28;20049;-52
2023/01/12 01:27:42;;;;;;;7.93;2.60;;;11.50;75.50;;;;;;5038774;28;20053;-47
2023/01/12 01:30:13;;;;;;;;;;;11.50;75.60;;;;;;5040026;28;20044;-49
2023/01/12 01:32:39;;;;;;;6.57;2.22;;;11.60;75.90;;;;;;5042402;28;19931;-50
2023/01/12 01:35:11;;;;;;;8.18;2.30;;;11.60;75.10;;;;;;5040693;28;20045;-51
2023/01/12 01:37:40;;;;;;;11.90;2.85;;;11.60;75.20;;;;;;5040656;28;20524;-49
2023/01/12 01:40:11;;;;;;;8.32;3.65;;;11.60;75.10;;;;;;5043561;28;20041;-49
2023/01/12 01:42:39;;;;;;;9.98;2.70;;;11.60;74.90;;;;;;5036732;28;20037;-49
2023/01/12 01:45:15;;;;;;;8.10;2.42;;;11.60;74.90;;;;;;5038642;28;20056;-52
2023/01/12 01:47:50;;;;;;;6.88;2.15;;;11.60;75.00;;;;;;5041854;28;20599;-49
2023/01/12 01:50:42;;;;;;;5.97;2.40;;;11.60;75.00;;;;;;5041771;28;20460;-50
2023/01/12 01:53:17;;;;;;;7.22;2.72;;;11.60;75.20;;;;;;5041898;28;20045;-49
2023/01/12 01:55:56;;;;;;;10.05;2.78;;;11.70;74.80;;;;;;5039790;28;20053;-49
2023/01/12 01:58:33;;;;;;;6.70;2.83;;;11.70;74.90;;;;;;5040673;28;20036;-48
2023/01/12 02:01:00;;;;;;;9.30;2.92;;;11.70;74.70;;;;;;5039294;28;20053;-48
2023/01/12 02:03:27;;;;;;;9.23;2.63;;;11.70;74.50;;;;;;5038780;28;20037;-49
2023/01/12 02:05:58;;;;;;;9.32;2.50;;;11.70;74.50;;;;;;5039216;28;20037;-50
2023/01/12 02:08:48;;;;;;;8.70;2.60;;;11.70;74.40;;;;;;5039401;28;20064;-51
2023/01/12 02:17:09;;;;;;;6.28;2.67;;;11.70;74.20;;;;;;5038015;28;20108;-52
2023/01/12 02:20:17;;;;;;;11.68;2.40;;;11.70;74.40;;;;;;5049610;28;20091;-49
2023/01/12 02:23:27;;;;;;;11.50;2.55;;;11.80;74.40;;;;;;5048207;28;20041;-47
2023/01/12 02:26:15;;;;;;;7.88;2.28;;;11.80;74.50;;;;;;5045263;28;20098;-49
2023/01/12 02:29:21;;;;;;;9.10;3.28;;;11.80;74.40;;;;;;5049338;28;20045;-49
2023/01/12 02:32:14;;;;;;;9.18;2.25;;;11.80;74.60;;;;;;5045703;28;20457;-48
2023/01/12 02:35:08;;;;;;;8.18;2.38;;;11.80;74.30;;;;;;5050711;28;20059;-52
2023/01/12 02:37:48;;;;;;;13.45;3.70;;;11.80;74.90;;;;;;5045698;28;20405;-50
2023/01/12 02:40:46;;;;;;;8.50;2.53;;;11.80;74.70;;;;;;5051611;28;20036;-50
2023/01/12 02:43:25;;;;;;;10.02;2.60;;;11.80;75.10;;;;;;5051050;28;20045;-48
2023/01/12 02:46:24;;;;;;;13.10;2.95;;;11.80;74.70;;;;;;5042892;28;20052;-51
2023/01/12 02:49:02;;;;;;;6.88;2.67;;;11.80;74.90;;;;;;5048227;28;20045;-48
2023/01/12 02:51:44;;;;;;;7.10;2.53;;;11.80;74.70;;;;;;5045599;28;20451;-49
2023/01/12 02:54:16;;;;;;;9.27;2.40;;;11.80;74.80;;;;;;5045655;28;20056;-48
2023/01/12 02:56:52;;;;;;;8.95;2.85;;;11.80;74.70;;;;;;5035045;28;20045;-53
2023/01/12 02:59:25;;;;;;;7.45;2.95;;;11.80;74.60;;;;;;5051490;28;20068;-50
2023/01/12 03:01:58;;;;;;;5.75;2.05;;;11.80;74.90;;;;;;5051796;28;20041;-53
2023/01/12 03:04:26;;;;;;;8.60;2.67;;;11.70;74.90;;;;;;5044191;28;20041;-48
2023/01/12 03:06:55;;;;;;;11.15;2.90;;;11.80;74.90;;;;;;5048766;28;20124;-48
2023/01/12 03:09:26;;;;;;;8.25;2.47;;;11.70;74.90;;;;;;5051107;28;20043;-48
2023/01/12 03:12:01;;;;;;;9.00;2.75;;;11.80;75.00;;;;;;5051640;28;20135;-48
2023/01/12 03:14:32;;;;;;;11.35;2.10;;;11.80;75.20;;;;;;5041242;28;20059;-52
2023/01/12 03:17:06;;;;;;;5.40;2.20;;;11.80;75.10;;;;;;5048438;28;20041;-48
2023/01/12 03:19:35;;;;;;;7.25;2.42;;;11.80;75.20;;;;;;5050105;28;20036;-48
2023/01/12 03:22:06;;;;;;;9.10;2.20;;;11.80;75.10;;;;;;5049947;28;20462;-50
2023/01/12 03:24:48;;;;;;;12.02;2.70;;;11.80;75.20;;;;;;5043755;28;20048;-49
2023/01/12 03:27:29;;;;;;;9.05;2.00;;;11.80;75.40;;;;;;5050811;28;21406;-48
2023/01/12 03:30:17;;;;;;;8.32;2.30;;;11.80;75.20;;;;;;5051501;28;20053;-52
2023/01/12 03:32:44;;;;;;;4.70;2.30;;;11.80;75.30;;;;;;5045224;28;20049;-51
2023/01/12 03:35:24;;;;;;;9.88;2.70;;;11.80;75.10;;;;;;5051355;28;20456;-53
2023/01/12 03:38:19;;;;;;;10.23;2.10;;;11.80;75.10;;;;;;5051786;28;20072;-50
2023/01/12 03:41:13;;;;;;;8.07;2.78;;;11.80;75.20;;;;;;5042030;28;20049;-49
2023/01/12 03:43:51;;;;;;;6.97;1.75;;;11.80;75.30;;;;;;5047638;28;20059;-49
2023/01/12 03:46:27;;;;;;;5.68;1.98;;;11.80;75.10;;;;;;5042931;28;20660;-51
2023/01/12 03:49:25;;;;;;;9.02;2.95;;;11.80;75.70;;;;;;5050969;28;20629;-53
2023/01/12 03:51:58;;;;;;;10.30;2.92;;;11.80;75.30;;;;;;5047001;28;20502;-50
2023/01/12 03:54:26;;;;;;;10.52;2.85;;;11.80;75.00;;;;;;5048991;28;20515;-51
2023/01/12 03:56:58;;;;;;;7.38;2.53;;;11.80;74.90;;;;;;5033512;28;20094;-52
2023/01/12 03:59:27;;;;;;;7.38;2.50;;;11.80;74.90;;;;;;5050764;28;20045;-51
2023/01/12 04:01:56;;;;;;;7.38;2.55;;;11.80;75.00;;;;;;5041324;28;20045;-50
2023/01/12 04:04:23;;;;;;;8.65;2.65;;;11.80;75.10;;;;;;5050329;28;20523;-47
2023/01/12 04:06:51;;;;;;;5.45;2.25;;;11.80;75.10;;;;;;5050806;28;20053;-50
2023/01/12 04:09:21;;;;;;;5.72;2.15;;;11.80;75.30;;;;;;5045931;28;20445;-52
2023/01/12 04:14:41;;;;;;;4.15;1.67;;;11.80;75.30;;;;;;5043500;28;20040;-53
2023/01/12 04:17:13;;;;;;;5.78;2.00;;;11.80;75.40;;;;;;5049434;28;20041;-52
2023/01/12 04:19:40;;;;;;;5.20;2.03;;;11.80;75.40;;;;;;5040450;28;20045;-49
2023/01/12 04:24:54;;;;;;;10.00;2.63;;;11.80;76.20;;;;;;5049738;28;20048;-53
2023/01/12 04:27:50;;;;;;;6.63;2.47;;;11.80;75.60;;;;;;5040531;28;20476;-52
2023/01/12 04:30:23;;;;;;;10.85;2.00;;;11.80;75.80;;;;;;5048408;28;20045;-50
2023/01/12 04:32:50;;;;;;;6.00;1.55;;;11.80;75.90;;;;;;5027258;28;20045;-50
2023/01/12 04:35:18;;;;;;;9.70;2.50;;;11.80;76.00;;;;;;5049068;28;20075;-51
2023/01/12 04:37:45;;;;;;;11.02;2.28;;;11.80;76.20;;;;;;5042466;28;20033;-50
2023/01/12 04:40:14;;;;;;;7.68;2.42;;;11.80;76.30;;;;;;5044976;28;20051;-53
2023/01/12 04:43:01;;;;;;;7.13;2.13;;;11.70;76.30;;;;;;5050384;28;20045;-49
2023/01/12 04:45:30;;;;;;;7.03;2.15;;;11.80;76.70;;;;;;5045701;28;20041;-48
2023/01/12 04:48:08;;;;;;;6.78;1.65;;;11.80;76.50;;;;;;5048614;28;20298;-49
2023/01/12 04:50:37;;;;;;;7.07;1.80;;;11.80;76.80;;;;;;5041573;28;20497;-48
2023/01/12 04:53:06;;;;;;;5.97;1.88;;;11.80;76.60;;;;;;5050559;28;20124;-50
2023/01/12 04:55:37;;;;;;;5.93;1.88;;;11.80;76.60;;;;;;5036992;28;20060;-48
2023/01/12 04:58:04;;;;;;;7.72;2.38;;;11.70;76.70;;;;;;5044327;28;20547;-53
2023/01/12 05:00:31;;;;;;;9.63;2.20;;;11.80;76.80;;;;;;5041507;28;20543;-49
2023/01/12 05:03:01;;;;;;;7.53;2.00;;;11.80;76.70;;;;;;5050147;28;20045;-52
2023/01/12 05:05:30;;;;;;;5.57;1.60;;;11.80;76.70;;;;;;5049184;28;20049;-52
2023/01/12 05:10:53;;;;;;;7.43;1.88;;;11.70;76.60;;;;;;5036389;28;20051;-48
2023/01/12 05:13:32;;;;;;;8.70;2.03;;;11.70;76.50;;;;;;5049915;28;20055;-51
2023/01/12 05:16:09;;;;;;;5.97;1.90;;;11.70;76.50;;;;;;5042870;28;20044;-50
2023/01/12 05:18:39;;;;;;;5.72;1.98;;;11.70;76.90;;;;;;5038965;28;20095;-52
2023/01/12 05:21:05;;;;;;;9.02;1.80;;;11.70;76.50;;;;;;5035113;28;20043;-52
2023/01/12 05:23:35;;;;;;;5.88;2.45;;;11.70;76.60;;;;;;5034955;28;20068;-52
2023/01/12 05:26:04;;;;;;;7.45;2.10;;;11.70;76.60;;;;;;5040825;28;20048;-50
2023/01/12 05:28:33;;;;;;;10.50;2.38;;;11.70;76.70;;;;;;5037922;28;20045;-49
2023/01/12 05:31:10;;;;;;;4.50;2.00;;;11.70;76.80;;;;;;5035231;28;20072;-49
2023/01/12 05:33:39;;;;;;;10.30;1.88;;;11.70;77.00;;;;;;5041483;28;20056;-48
2023/01/12 05:36:12;;;;;;;5.57;2.30;;;11.70;76.70;;;;;;5040762;28;20069;-48
2023/01/12 05:38:39;;;;;;;;;;;11.70;77.00;;;;;;5041817;28;20515;-49
2023/01/12 05:41:08;;;;;;;6.50;2.08;;;11.80;77.40;;;;;;5042995;28;19951;-49
2023/01/12 05:43:49;;;;;;;6.47;1.83;;;11.70;76.30;;;;;;5038825;28;20037;-49
2023/01/12 05:46:24;;;;;;;9.32;1.73;;;11.70;76.50;;;;;;5042184;28;20114;-49
2023/01/12 05:48:52;;;;;;;6.30;2.58;;;11.70;76.70;;;;;;5048325;28;20053;-48
2023/01/12 05:51:20;;;;;;;6.43;2.00;;;11.70;76.60;;;;;;5051933;28;20068;-49
2023/01/12 05:53:47;;;;;;;5.28;2.30;;;11.70;76.70;;;;;;5049546;28;20079;-50
2023/01/12 05:56:20;;;;;;;5.57;1.75;;;11.70;76.70;;;;;;5047610;28;20041;-51
2023/01/12 05:58:58;;;;;;;4.57;1.40;;;11.70;76.90;;;;;;5047264;28;20051;-49
2023/01/12 06:01:26;;;;;;;8.00;2.53;;;11.70;76.90;;;;;;5049391;28;20036;-50
2023/01/12 06:03:58;;;;;;;6.65;2.00;;;11.70;76.80;;;;;;5049956;28;20072;-52
2023/01/12 06:06:26;;;;;;;;;;;11.60;76.90;;;;;;5049465;28;20053;-49
2023/01/12 06:08:53;;;;;;;7.07;1.70;;;11.70;77.30;;;;;;5044538;28;19956;-48
2023/01/12 06:14:13;;;;;;;7.45;2.05;;;11.70;76.70;;;;;;5007502;28;20421;-52
2023/01/12 06:16:41;;;;;;;8.75;1.80;;;11.70;76.90;;;;;;5051297;28;20037;-49
2023/01/12 06:19:09;;;;;;;5.28;1.85;;;11.60;76.90;;;;;;5050276;28;20048;-52
2023/01/12 06:21:39;;;;;;;9.02;2.35;;;11.70;77.20;;;;;;5041428;28;20052;-48
2023/01/12 06:24:06;;;;;;;5.35;2.05;;;11.60;77.20;;;;;;5044305;28;20048;-53
2023/01/12 06:26:33;;;;;;;8.00;1.75;;;11.60;77.30;;;;;;5049942;28;20045;-49
2023/01/12 06:29:05;;;;;;;9.23;1.83;;;11.60;77.40;;;;;;5050415;28;20049;-51
2023/01/12 06:31:32;;;;;;;5.47;1.42;;;11.70;77.80;;;;;;5042930;28;20087;-53
2023/01/12 06:33:59;;;;;;;7.63;2.33;;;11.60;77.60;;;;;;5050662;28;20056;-48
2023/01/12 06:36:26;;;;;;;5.97;2.13;;;11.70;77.80;;;;;;5050389;28;20453;-51
2023/01/12 06:38:52;;;;;;;4.80;1.80;;;11.70;78.00;;;;;;5045866;28;20746;-52
2023/01/12 06:44:05;;;;;;;6.45;2.00;;;11.60;78.00;;;;;;5046838;28;20400;-51
2023/01/12 06:46:31;;;;;;;6.68;1.60;;;11.70;78.00;;;;;;5043940;28;20049;-53
2023/01/12 06:48:58;;;;;;;4.78;1.73;;;11.70;78.10;;;;;;5048512;28;20420;-52
2023/01/12 06:51:25;;;;;;;6.72;2.42;;;11.70;78.10;;;;;;5045981;28;20666;-53
2023/01/12 06:53:52;;;;;;;5.78;1.52;;;11.70;78.20;;;;;;5050738;28;20439;-53
2023/01/12 06:56:19;;;;;;;6.30;1.67;;;11.70;78.30;;;;;;5049776;28;20087;-50
2023/01/12 06:58:46;;;;;;;4.45;1.75;;;11.70;78.40;;;;;;5044961;28;20055;-52
2023/01/12 07:01:15;;;;;;;6.88;1.75;;;11.70;78.50;;;;;;5050234;28;20075;-49
2023/01/12 07:03:42;;;;;;;4.53;1.52;;;11.80;79.20;;;;;;5050100;28;20045;-53
2023/01/12 07:06:09;;;;;;;4.80;1.65;;;11.80;78.60;;;;;;5032765;28;20052;-49
2023/01/12 07:08:36;;;;;;;7.32;1.70;;;11.80;78.70;;;;;;5044742;28;20450;-50
2023/01/12 07:11:06;;;;;;;4.47;1.58;;;11.80;78.70;;;;;;5046167;28;20044;-49
2023/01/12 07:13:35;;;;;;;;;;;11.80;78.80;;;;;;5041869;28;20110;-53
2023/01/12 07:16:02;;;;;;;2.60;1.05;;;11.90;79.30;;;;;;5046946;28;19927;-50
2023/01/12 07:18:32;;;;;;;4.40;1.25;;;11.80;78.40;;;;;;5049918;28;20053;-52
2023/01/12 07:21:02;;;;;;;4.18;1.45;;;11.80;78.70;;;;;;5050793;28;20048;-52
2023/01/12 07:23:28;;;;;;;2.50;1.40;;;11.80;78.80;;;;;;5050437;28;20084;-49
2023/01/12 07:25:58;;;;;;;5.63;1.38;;;11.80;79.00;;;;;;5044405;28;20059;-53
2023/01/12 07:28:25;;;;;;;3.85;1.20;;;11.80;79.30;;;;;;5040804;28;20049;-53
2023/01/12 07:30:52;;;;;;;3.70;1.40;;;11.80;79.30;;;;;;5048433;28;20523;-53
2023/01/12 07:33:18;;;;;;;4.80;1.45;;;11.80;79.40;;;;;;5050493;28;20045;-52
2023/01/12 07:35:45;;;;;;;9.05;1.88;;;11.80;79.70;;;;;;5048135;28;20421;-50
2023/01/12 07:38:11;;;;;;;3.97;1.88;;;11.90;79.70;;;;;;5048720;28;20045;-53
2023/01/12 07:40:38;;;;;;;5.18;1.33;;;11.80;79.80;;;;;;5050415;28;20048;-50
2023/01/12 07:43:07;;;;;;;5.32;1.58;;;11.90;80.00;;;;;;5048123;28;20424;-50
2023/01/12 07:45:35;;;;;;;2.22;0.82;;;11.90;80.20;;;;;;5041956;28;20053;-53
2023/01/12 07:48:02;;;;;;;5.05;1.15;;;11.90;80.30;;;;;;5046091;28;20047;-48
2023/01/12 07:50:29;;;;;;;6.63;1.70;;;11.90;80.40;;;;;;5050359;28;20053;-53
2023/01/12 07:53:00;;;;;;;5.70;1.60;;;11.90;80.50;;;;;;5049644;28;20057;-51
2023/01/12 07:55:29;;;;;;;3.73;0.83;;;11.90;80.70;;;;;;5045571;28;20405;-53
2023/01/12 07:57:57;;;;;;;5.22;1.30;;;11.90;80.70;;;;;;5049546;28;20295;-51
2023/01/12 08:00:25;;;;;;;6.97;1.23;;;11.90;80.70;;;;;;5050976;28;20490;-49
2023/01/12 08:02:54;;;;;;;8.23;1.60;;;12.00;81.00;;;;;;5046283;28;20041;-52
2023/01/12 08:05:22;;;;;;;5.68;1.80;;;12.00;81.00;;;;;;5045245;28;20623;-52
2023/01/12 08:07:49;;;;;;;4.60;1.13;;;12.00;81.00;;;;;;5046997;28;20092;-50
2023/01/12 08:10:16;;;;;;;1.67;0.68;;;12.00;81.10;;;;;;5045248;28;20045;-49
2023/01/12 08:12:43;;;;;;;4.72;1.00;;;12.00;81.20;;;;;;5038146;28;20049;-50
2023/01/12 08:15:11;;;;;;;3.35;1.08;;;12.00;81.30;;;;;;5049536;28;20043;-50
2023/01/12 08:18:05;;;;;;;3.83;1.13;;;12.00;81.30;;;;;;5049144;28;20060;-53
2023/01/12 08:20:34;;;;;;;4.00;1.40;;;12.10;81.50;;;;;;5049823;28;20124;-51
2023/01/12 08:23:15;;;;;;;2.28;0.90;;;12.00;81.30;;;;;;5044939;28;20245;-52
2023/01/12 08:25:47;;;;;;;2.80;0.70;;;12.10;81.40;;;;;;5046460;28;20155;-49
2023/01/12 08:28:23;;;;;;;1.60;0.90;;;12.10;81.50;;;;;;5047995;28;20045;-49
2023/01/12 08:30:50;;;;;;;3.10;0.95;;;12.10;81.70;;;;;;5033576;28;20132;-49
2023/01/12 08:33:18;;;;;;;4.10;1.13;;;12.10;81.60;;;;;;5048341;28;20045;-50
2023/01/12 08:35:46;;;;;;;5.82;0.95;;;12.10;81.70;;;;;;5042549;28;20569;-52
2023/01/12 08:38:13;;;;;;;1.30;0.82;;;12.10;81.70;;;;;;5049769;28;20037;-50
2023/01/12 08:46:11;;;;;;;1.75;0.75;;;12.10;81.70;;;;;;5045742;28;20072;-52
2023/01/12 08:48:38;;;;;;;4.07;0.93;;;12.20;81.90;;;;;;5049371;28;20549;-49
2023/01/12 08:51:06;;;;;;;3.95;0.98;;;12.20;82.00;;;;;;5043172;28;20043;-51
2023/01/12 08:53:34;;;;;;;2.70;1.17;;;12.20;82.00;;;;;;5044292;28;20069;-52
2023/01/12 08:56:01;;;;;;;1.70;0.98;;;12.20;82.00;;;;;;5044147;28;20707;-49
2023/01/12 08:58:28;;;;;;;1.52;0.63;;;12.20;82.10;;;;;;5040442;28;20069;-52
2023/01/12 09:00:55;;;;;;;3.05;0.70;;;12.20;82.20;;;;;;5043737;28;20189;-51
2023/01/12 09:03:22;;;;;;;3.97;0.95;;;12.20;82.20;;;;;;5047516;28;20055;-49
2023/01/12 09:05:48;;;;;;;2.80;0.80;;;12.30;82.30;;;;;;5048714;28;20390;-49
2023/01/12 09:08:15;;;;;;;5.28;1.30;;;12.30;82.30;;;;;;5046584;28;20052;-51
2023/01/12 09:10:41;;;;;;;2.78;0.75;;;12.30;82.30;;;;;;5045445;28;20040;-48
2023/01/12 09:13:10;;;;;;;1.75;0.75;;;12.30;82.30;;;;;;5048552;28;20062;-49
2023/01/12 09:15:37;;;;;;;1.95;0.85;;;12.30;82.30;;;;;;5047326;28;20029;-51
2023/01/12 09:18:03;;;;;;;4.00;1.23;;;12.30;82.30;;;;;;5022277;28;20108;-52
2023/01/12 09:20:30;;;;;;;4.20;1.02;;;12.40;82.40;;;;;;5042221;28;20044;-50
2023/01/12 09:22:57;;;;;;;2.60;1.15;;;12.40;82.40;;;;;;5048475;28;20029;-47
2023/01/12 09:25:23;;;;;;;4.18;1.20;;;12.40;82.40;;;;;;5049680;28;20045;-51
2023/01/12 09:27:50;;;;;;;4.63;1.27;;;12.40;82.40;;;;;;5047176;28;20052;-51
2023/01/12 09:30:17;;;;;;;5.13;1.45;;;12.40;82.40;;;;;;5043503;28;20033;-51
2023/01/12 09:32:43;;;;;;;3.30;1.13;;;12.40;82.40;;;;;;5044312;28;20497;-49
2023/01/12 09:35:10;;;;;;;3.08;1.08;;;12.50;82.40;;;;;;5049901;28;20459;-52
2023/01/12 09:37:42;;;;;;;2.55;1.20;;;12.40;82.50;;;;;;5047384;28;20102;-48
2023/01/12 09:40:13;;;;;;;4.93;1.02;;;12.40;82.50;;;;;;5045925;28;20400;-48
2023/01/12 09:48:21;;;;;;;2.85;1.23;;;12.50;82.60;;;;;;5041767;28;20045;-49
2023/01/12 09:51:02;;;;;;;5.03;1.67;;;12.60;82.70;;;;;;5025777;28;20464;-51
2023/01/12 09:53:35;;;;;;;2.72;1.40;;;12.60;82.70;;;;;;5048334;28;20115;-51
2023/01/12 09:56:21;;;;;;;3.58;0.90;;;12.60;83.30;;;;;;5045702;28;20037;-52
2023/01/12 09:59:06;;;;;;;3.40;1.20;;;12.60;82.80;;;;;;5033710;28;20040;-50
2023/01/12 10:01:35;;;;;;;3.38;1.17;;;12.60;82.80;;;;;;5025623;28;20037;-52
2023/01/12 10:04:03;;;;;;;4.13;1.33;;;12.60;82.60;;;;;;5048165;28;20040;-49
2023/01/12 10:06:33;;;;;;;2.85;0.90;;;12.70;82.60;;;;;;5042706;28;20080;-52
2023/01/12 10:09:03;;;;;;;4.95;0.90;;;12.60;82.60;;;;;;5048842;28;20704;-52
2023/01/12 10:12:03;;;;;;;2.17;0.95;;;12.70;82.70;;;;;;5040532;28;20529;-50
2023/01/12 10:14:59;;;;;;;3.97;1.15;;;12.70;83.00;;;;;;5046054;28;20060;-52
2023/01/12 10:17:50;;;;;;;2.42;0.95;;;12.70;82.80;;;;;;5039343;28;20048;-50
2023/01/12 10:20:38;;;;;;;2.67;1.20;;;12.70;83.00;;;;;;5048675;28;20041;-52
2023/01/12 10:23:08;;;;;;;2.85;1.02;;;12.70;82.80;;;;;;5041633;28;20566;-50
2023/01/12 10:25:42;;;;;;;1.58;0.90;;;12.70;82.60;;;;;;5044234;28;20052;-51
2023/01/12 10:28:32;;;;;;;4.53;1.20;;;12.80;82.80;;;;;;5047690;28;20051;-52
2023/01/12 10:31:00;;;;;;;2.28;0.95;;;12.80;83.10;;;;;;5039346;28;20069;-51
2023/01/12 10:33:33;;;;;;;2.83;0.70;;;12.80;82.70;;;;;;5050151;28;20425;-52
2023/01/12 10:36:17;;;;;;;1.25;1.08;;;12.80;82.70;;;;;;5049223;28;20151;-51
2023/01/12 10:39:02;;;;;;;6.50;1.23;;;12.90;83.00;;;;;;5049863;28;20037;-50
2023/01/12 10:41:33;;;;;;;1.63;1.00;;;12.90;82.90;;;;;;5030906;28;20041;-50
2023/01/12 10:44:00;;;;;;;3.92;1.33;;;12.90;82.70;;;;;;5037121;28;20043;-53
2023/01/12 10:46:30;;;;;;;3.15;1.15;;;12.90;82.70;;;;;;5048767;28;20041;-48
2023/01/12 10:49:17;;;;;;;3.67;1.25;;;12.90;82.70;;;;;;5051930;28;20045;-49
2023/01/12 10:51:56;;;;;;;3.08;1.05;;;12.90;83.20;;;;;;5048512;28;20063;-54
2023/01/12 10:54:32;;;;;;;2.65;0.63;;;12.90;83.00;;;;;;5040331;28;20041;-52
2023/01/12 10:57:19;;;;;;;1.95;0.90;;;12.90;82.70;;;;;;5044523;28;20071;-51
2023/01/12 10:59:56;;;;;;;1.45;0.85;;;12.90;82.80;;;;;;5034609;28;20068;-52
2023/01/12 11:02:25;;;;;;;3.65;1.23;;;13.00;82.80;;;;;;5045478;28;20037;-52
2023/01/12 11:04:53;;;;;;;3.03;1.27;;;13.00;82.80;;;;;;5044336;28;20040;-49
2023/01/12 11:07:27;;;;;;;1.95;1.02;;;12.90;82.60;;;;;;5050759;28;20589;-49
2023/01/12 11:10:15;;;;;;;3.03;1.05;;;13.00;82.70;;;;;;5039077;28;20044;-48
2023/01/12 11:12:54;;;;;;;5.28;1.10;;;13.00;82.70;;;;;;5030875;28;20064;-53
2023/01/12 11:15:21;;;;;;;2.47;1.10;;;13.00;82.80;;;;;;5050855;28;20056;-51
2023/01/12 11:18:30;;;;;;;3.42;1.10;;;13.00;82.70;;;;;;5046111;28;20052;-51
2023/01/12 11:21:10;;;;;;;3.88;1.40;;;13.00;82.90;;;;;;5047325;28;20047;-52
2023/01/12 11:23:56;;;;;;;5.25;1.23;;;13.10;82.80;;;;;;5050245;28;20047;-49
2023/01/12 11:26:29;;;;;;;2.55;0.95;;;13.00;82.70;;;;;;5031747;28;20417;-53
2023/01/12 11:29:03;;;;;;;4.43;1.27;;;13.00;82.60;;;;;;5041812;28;20064;-52
2023/01/12 11:31:41;;;;;;;2.03;0.90;;;13.00;82.70;;;;;;5018101;28;20749;-53
2023/01/12 11:34:16;;;;;;;3.30;1.10;;;13.00;83.00;;;;;;5035739;28;20133;-50
2023/01/12 11:36:48;;;;;;;4.35;1.20;;;13.00;82.70;;;;;;5041914;28;20051;-51
2023/01/12 11:39:21;;;;;;;3.13;1.10;;;13.10;82.80;;;;;;5049581;28;20048;-53
2023/01/12 11:45:00;;;;;;;5.70;1.13;;;13.10;82.80;;;;;;5038050;28;20028;-50
2023/01/12 11:47:36;;;;;;;1.13;0.77;;;13.10;82.90;;;;;;5047069;28;20087;-54
2023/01/12 11:50:23;;;;;;;2.85;1.05;;;13.10;82.80;;;;;;5043996;28;20040;-53
2023/01/12 11:52:51;;;;;;;2.97;1.00;;;13.10;83.00;;;;;;5050175;28;20132;-52
2023/01/12 11:55:53;;;;;;;2.40;0.82;;;13.10;82.70;;;;;;5051078;28;20051;-52
2023/01/12 11:58:37;;;;;;;2.83;0.85;;;13.10;83.10;;;;;;5036821;28;20136;-51
2023/01/12 12:01:23;;;;;;;3.42;1.00;;;13.10;82.80;;;;;;5041787;28;20052;-50
2023/01/12 12:04:03;;;;;;;2.75;1.08;;;13.10;82.60;;;;;;5050411;28;20061;-52
2023/01/12 12:06:56;;;;;;;3.55;0.90;;;13.10;82.80;;;;;;5047051;28;20567;-49
2023/01/12 12:09:39;;;;;;;2.92;1.20;;;13.10;82.90;;;;;;5040511;28;20040;-48
2023/01/12 12:12:19;;;;;;;5.78;0.90;;;13.10;82.70;;;;;;5050158;28;20583;-48
2023/01/12 12:15:16;;;;;;;2.42;1.02;;;13.10;82.70;;;;;;5050135;28;20128;-48
2023/01/12 12:17:55;;;;;;;2.83;1.00;;;13.20;83.10;;;;;;5044276;28;20469;-50
2023/01/12 12:20:40;;;;;;;5.80;0.88;;;13.20;83.00;;;;;;5045395;28;20043;-49
2023/01/12 12:23:22;;;;;;;2.15;0.77;;;13.20;83.00;;;;;;5042577;28;20033;-53
2023/01/12 12:26:02;;;;;;;4.20;1.10;;;13.20;83.00;;;;;;5046994;28;20037;-53
2023/01/12 12:28:37;;;;;;;1.80;0.85;;;13.20;82.90;;;;;;5038527;28;21669;-48
2023/01/12 12:31:21;;;;;;;1.95;0.77;;;13.10;82.50;;;;;;5038678;28;20093;-52
2023/01/12 12:34:08;;;;;;;2.42;0.90;;;13.20;82.50;;;;;;5041810;28;20056;-50
2023/01/12 12:36:49;;;;;;;0.73;0.45;;;13.10;82.50;;;;;;5042184;28;20397;-50
2023/01/12 12:39:47;;;;;;;2.50;0.77;;;13.20;82.70;;;;;;5042115;28;20049;-51
2023/01/12 12:45:40;;;;;;;2.92;0.60;;;13.10;82.70;;;;;;5036415;28;20123;-50
2023/01/12 12:48:22;;;;;;;2.72;1.00;;;13.10;82.80;;;;;;5039565;28;20316;-55
2023/01/12 12:51:15;;;;;;;1.10;0.50;;;13.20;82.50;;;;;;5042277;28;20048;-50
2023/01/12 12:53:44;;;;;;;7.95;1.08;;;13.20;82.80;;;;;;5033148;28;20252;-48
2023/01/12 12:56:15;;;;;;;2.28;0.80;;;13.10;82.40;;;;;;5045576;28;20467;-51
2023/01/12 12:58:46;;;;;;;2.92;1.00;;;13.20;82.50;;;;;;5041142;28;20045;-48
2023/01/12 13:01:22;;;;;;;2.15;0.75;;;13.10;82.50;;;;;;5042917;28;20413;-52
2023/01/12 13:03:54;;;;;;;2.38;1.02;;;13.20;82.60;;;;;;5048126;28;20037;-52
2023/01/12 13:06:22;;;;;;;2.60;0.82;;;13.10;82.50;;;;;;5040284;28;20081;-53
2023/01/12 13:08:57;;;;;;;2.70;0.77;;;13.10;82.50;;;;;;5041749;28;20076;-48
2023/01/12 13:11:54;;;;;;;2.00;0.98;;;13.10;82.70;;;;;;5046046;28;20602;-49
2023/01/12 13:14:40;;;;;;;2.50;1.05;;;13.10;82.70;;;;;;5040852;28;20053;-52
2023/01/12 13:17:18;;;;;;;2.67;0.90;;;13.10;82.70;;;;;;5042489;28;20410;-52
2023/01/12 13:20:10;;;;;;;1.45;0.82;;;13.10;82.80;;;;;;5049337;28;20045;-48
2023/01/12 13:22:50;;;;;;;2.88;1.20;;;13.10;82.70;;;;;;5033532;28;20064;-50
2023/01/12 13:25:23;;;;;;;3.40;1.15;;;13.10;82.50;;;;;;5047678;28;20041;-50
2023/01/12 13:27:59;;;;;;;2.08;0.68;;;13.10;82.70;;;;;;5048162;28;20092;-53
2023/01/12 13:30:29;;;;;;;1.92;0.70;;;13.10;82.80;;;;;;5044041;28;20051;-48
2023/01/12 13:33:14;;;;;;;1.83;0.75;;;13.10;82.80;;;;;;5043606;28;20056;-52
2023/01/12 13:35:43;;;;;;;2.45;0.70;;;13.10;83.00;;;;;;5049314;28;20045;-50
2023/01/12 13:38:38;;;;;;;1.25;0.55;;;13.10;82.70;;;;;;5049296;28;20087;-52
2023/01/12 13:41:12;;;;;;;1.90;0.90;;;13.10;83.20;;;;;;5036011;28;20497;-49
2023/01/12 13:43:48;;;;;;;0.93;0.30;;;13.10;83.00;;;;;;5044808;28;20049;-50
2023/01/12 13:46:19;;;;;;;0.93;0.40;;;13.10;82.80;;;;;;5048240;28;20044;-52
2023/01/12 13:48:48;;;;;;;0.80;0.70;;;13.10;82.90;;;;;;5047907;28;20132;-48
2023/01/12 13:51:32;;;;;;;1.85;0.30;;;13.10;83.00;;;;;;5045199;28;20037;-48
2023/01/12 13:54:05;;;;;;;0.95;0.68;;;13.10;83.20;;;;;;5042925;28;20037;-49
2023/01/12 13:56:32;;;;;;;1.95;0.50;;;13.10;83.00;;;;;;5048560;28;20068;-51
2023/01/12 13:59:01;;;;;;;0.82;0.43;;;13.10;83.00;;;;;;5045145;28;20045;-56
2023/01/12 14:01:32;;;;;;;0.77;0.38;;;13.10;82.90;;;;;;5038648;28;20124;-49
2023/01/12 14:04:21;;;;;;;1.70;0.60;;;13.20;83.00;;;;;;5044078;28;20040;-51